Time;durP1;ratioP1;P1;durP2;ratioP2;P2;SDS_P1;SDS_P2;PMS_P1;PMS_P2;Temp;Humidity;BMP_temperature;BMP_pressure;BME280_temperature;BME280_humidity;BME280_pressure;Samples;Min_cycle;Max_cycle;Signal;HPM_P1;HPM_P2
2021/11/03 00:00:18;;;;;;;1.60;1.00;;;20.60;68.20;;;;;;5103858;28;20036;-38
2021/11/03 00:02:44;;;;;;;1.13;0.93;;;20.60;68.10;;;;;;5104159;28;20044;-37
2021/11/03 00:05:11;;;;;;;1.23;1.00;;;20.60;68.10;;;;;;5082275;28;20039;-37
2021/11/03 00:07:37;;;;;;;1.30;1.10;;;20.50;68.00;;;;;;5103696;28;20624;-37
2021/11/03 00:10:05;;;;;;;1.15;0.95;;;20.50;68.00;;;;;;5102351;28;20024;-38
2021/11/03 00:12:31;;;;;;;1.27;0.90;;;20.50;67.90;;;;;;5101380;28;20449;-38
2021/11/03 00:14:58;;;;;;;1.98;1.23;;;20.50;67.80;;;;;;5065953;28;20028;-38
2021/11/03 00:17:24;;;;;;;;;;;20.50;67.90;;;;;;5065757;28;20617;-37
2021/11/03 00:19:51;;;;;;;1.55;1.20;;;20.40;67.70;;;;;;5083441;28;19958;-37
2021/11/03 00:22:17;;;;;;;2.15;1.17;;;20.40;67.80;;;;;;5083160;28;20032;-37
2021/11/03 00:24:43;;;;;;;1.42;0.95;;;20.40;67.80;;;;;;5083283;28;20016;-37
2021/11/03 00:27:10;;;;;;;1.50;1.17;;;20.40;67.80;;;;;;5083324;28;20028;-37
2021/11/03 00:29:36;;;;;;;2.00;1.13;;;20.40;67.80;;;;;;5083372;28;20020;-37
2021/11/03 00:32:06;;;;;;;1.17;1.08;;;20.40;67.80;;;;;;5082810;28;20036;-38
2021/11/03 00:34:32;;;;;;;1.02;0.90;;;20.30;67.80;;;;;;5083175;28;20477;-37
2021/11/03 00:36:58;;;;;;;0.97;0.77;;;20.30;67.80;;;;;;5064826;28;20063;-37
2021/11/03 00:39:26;;;;;;;1.48;0.90;;;20.30;67.80;;;;;;5082642;28;20024;-37
2021/11/03 00:41:53;;;;;;;2.13;1.25;;;20.30;67.80;;;;;;5082623;28;20055;-37
2021/11/03 00:44:19;;;;;;;;;;;20.30;67.80;;;;;;5083238;28;20032;-37
2021/11/03 00:46:45;;;;;;;1.52;1.08;;;20.20;67.80;;;;;;5083152;28;19914;-38
2021/11/03 00:49:12;;;;;;;1.75;0.90;;;20.20;67.90;;;;;;5082589;28;20035;-38
2021/11/03 00:51:38;;;;;;;1.27;1.13;;;20.20;67.80;;;;;;5082730;28;20024;-38
2021/11/03 00:54:04;;;;;;;0.90;0.90;;;20.20;67.90;;;;;;5082643;28;20028;-38
2021/11/03 00:56:30;;;;;;;1.50;1.00;;;20.20;67.80;;;;;;5082496;28;20021;-37
2021/11/03 00:58:56;;;;;;;1.10;0.90;;;20.20;67.90;;;;;;5082773;28;20082;-37
2021/11/03 01:01:23;;;;;;;2.22;1.15;;;20.20;67.90;;;;;;5082428;28;20512;-37
2021/11/03 01:03:49;;;;;;;1.83;0.90;;;20.10;67.80;;;;;;5082666;28;20116;-38
2021/11/03 01:06:15;;;;;;;1.90;0.90;;;20.10;67.80;;;;;;5082221;28;20085;-37
2021/11/03 01:08:41;;;;;;;1.60;1.00;;;20.10;67.90;;;;;;5064721;28;20266;-37
2021/11/03 01:11:08;;;;;;;1.23;1.00;;;20.10;67.90;;;;;;5082266;28;20615;-38
2021/11/03 01:13:34;;;;;;;1.33;1.20;;;20.10;67.90;;;;;;5093723;28;20093;-38
2021/11/03 01:16:00;;;;;;;1.80;1.27;;;20.00;67.90;;;;;;5102756;28;20086;-37
2021/11/03 01:18:28;;;;;;;0.95;0.80;;;20.10;68.00;;;;;;5102749;28;20098;-37
2021/11/03 01:20:55;;;;;;;1.10;0.93;;;20.00;67.90;;;;;;5102752;28;20107;-37
2021/11/03 01:23:21;;;;;;;1.08;0.75;;;20.00;68.00;;;;;;5102592;28;20040;-38
2021/11/03 01:25:48;;;;;;;0.80;0.70;;;20.00;67.90;;;;;;5100681;28;20028;-37
2021/11/03 01:28:14;;;;;;;1.33;0.82;;;19.90;67.90;;;;;;5082468;28;20024;-38
2021/11/03 01:30:41;;;;;;;2.23;1.10;;;19.90;68.00;;;;;;5082579;28;20024;-38
2021/11/03 01:33:07;;;;;;;1.30;0.80;;;19.90;67.90;;;;;;5082039;28;20583;-37
2021/11/03 01:35:33;;;;;;;1.38;0.90;;;19.90;68.00;;;;;;5081939;28;20084;-38
2021/11/03 01:37:59;;;;;;;1.48;0.80;;;19.90;68.10;;;;;;5082510;28;20032;-38
2021/11/03 01:40:29;;;;;;;1.13;1.00;;;19.90;68.10;;;;;;5082148;28;20025;-38
2021/11/03 01:42:55;;;;;;;2.15;0.95;;;19.90;68.00;;;;;;5063802;28;20032;-38
2021/11/03 01:45:26;;;;;;;1.23;0.93;;;19.90;68.10;;;;;;5082347;28;20025;-37
2021/11/03 01:47:54;;;;;;;0.90;0.80;;;19.90;68.20;;;;;;5082089;28;20288;-38
2021/11/03 01:50:41;;;;;;;2.38;1.00;;;19.80;68.10;;;;;;5082125;28;20032;-38
2021/11/03 01:53:26;;;;;;;1.38;0.90;;;19.80;68.10;;;;;;5084870;28;20054;-37
2021/11/03 01:56:16;;;;;;;1.08;0.80;;;19.80;68.10;;;;;;5070453;28;20025;-38
2021/11/03 01:58:58;;;;;;;1.30;1.13;;;19.80;68.20;;;;;;5106353;28;20032;-38
2021/11/03 02:01:25;;;;;;;1.00;0.90;;;19.70;68.10;;;;;;5088207;28;20098;-37
2021/11/03 02:03:51;;;;;;;1.63;1.10;;;19.70;68.10;;;;;;5067833;28;20020;-37
2021/11/03 02:06:19;;;;;;;0.77;0.73;;;19.70;68.10;;;;;;5065301;28;20024;-37
2021/11/03 02:08:45;;;;;;;0.90;0.80;;;19.70;68.20;;;;;;5088502;28;20047;-38
2021/11/03 02:11:12;;;;;;;2.67;0.90;;;19.70;68.20;;;;;;5106302;28;20082;-37
2021/11/03 02:13:38;;;;;;;1.20;0.90;;;19.60;68.20;;;;;;5105714;28;20111;-37
2021/11/03 02:16:05;;;;;;;1.30;1.00;;;19.60;68.40;;;;;;5106321;28;20113;-37
2021/11/03 02:18:32;;;;;;;1.33;1.10;;;19.60;68.40;;;;;;5105939;28;20034;-37
2021/11/03 02:20:58;;;;;;;1.08;0.75;;;19.60;68.30;;;;;;5087602;28;20036;-39
2021/11/03 02:23:27;;;;;;;1.00;0.77;;;19.50;68.30;;;;;;5071097;28;20081;-37
2021/11/03 02:26:05;;;;;;;0.95;0.70;;;19.50;68.40;;;;;;5084495;28;20047;-39
2021/11/03 02:28:31;;;;;;;1.20;1.00;;;19.50;68.40;;;;;;5069488;28;20048;-38
2021/11/03 02:30:58;;;;;;;0.90;0.77;;;19.50;68.50;;;;;;5067040;28;20123;-37
2021/11/03 02:33:24;;;;;;;1.13;1.02;;;19.50;68.50;;;;;;5067271;28;20028;-38
2021/11/03 02:36:04;;;;;;;1.20;0.80;;;19.50;68.50;;;;;;5085382;28;20024;-37
2021/11/03 02:38:41;;;;;;;1.52;0.98;;;19.40;68.50;;;;;;5065288;28;20449;-38
2021/11/03 02:41:08;;;;;;;1.45;0.77;;;19.40;68.60;;;;;;5065235;28;20089;-38
2021/11/03 02:43:55;;;;;;;0.95;0.85;;;19.40;68.50;;;;;;5047271;28;20037;-38
2021/11/03 02:46:22;;;;;;;1.00;0.90;;;19.40;68.60;;;;;;5047169;28;20033;-38
2021/11/03 02:48:48;;;;;;;1.00;0.90;;;19.40;68.60;;;;;;5065283;28;20032;-38
2021/11/03 02:51:36;;;;;;;1.63;1.00;;;19.40;68.60;;;;;;5065240;28;20053;-38
2021/11/03 02:54:05;;;;;;;1.52;1.05;;;19.30;68.60;;;;;;5064871;28;20037;-37
2021/11/03 02:56:36;;;;;;;1.48;0.98;;;19.30;68.70;;;;;;5072853;28;20029;-38
2021/11/03 02:59:06;;;;;;;1.00;0.70;;;19.30;68.70;;;;;;5084921;28;20040;-38
2021/11/03 03:01:46;;;;;;;1.20;0.90;;;19.30;69.50;;;;;;5084971;28;20123;-37
2021/11/03 03:04:18;;;;;;;2.35;0.90;;;19.30;68.80;;;;;;5066292;28;20098;-42
2021/11/03 03:06:44;;;;;;;1.13;0.80;;;19.20;68.80;;;;;;5069689;28;20036;-37
2021/11/03 03:09:11;;;;;;;1.08;0.73;;;19.20;68.80;;;;;;5105097;28;20024;-37
2021/11/03 03:11:38;;;;;;;1.10;1.00;;;19.20;68.90;;;;;;5086854;28;20092;-38
2021/11/03 03:14:04;;;;;;;1.00;0.70;;;19.20;68.90;;;;;;5104646;28;20055;-37
2021/11/03 03:16:31;;;;;;;1.75;1.08;;;19.20;68.90;;;;;;5104987;28;20028;-37
2021/11/03 03:18:58;;;;;;;1.00;0.77;;;19.20;68.90;;;;;;5104973;28;20110;-37
2021/11/03 03:21:24;;;;;;;1.25;0.95;;;19.10;68.90;;;;;;5104774;28;20051;-38
2021/11/03 03:23:50;;;;;;;0.80;0.80;;;19.10;68.90;;;;;;5104517;28;20066;-38
2021/11/03 03:26:18;;;;;;;1.80;1.00;;;19.10;68.90;;;;;;5104752;28;20028;-37
2021/11/03 03:28:44;;;;;;;0.98;0.77;;;19.10;69.00;;;;;;5104642;28;20119;-37
2021/11/03 03:31:11;;;;;;;1.27;0.85;;;19.10;69.00;;;;;;5104583;28;20025;-37
2021/11/03 03:33:37;;;;;;;0.70;0.70;;;19.00;68.90;;;;;;5104694;28;20032;-38
2021/11/03 03:36:03;;;;;;;1.73;0.80;;;19.00;69.00;;;;;;5097575;28;21068;-38
2021/11/03 03:38:30;;;;;;;1.07;0.80;;;19.00;69.00;;;;;;5104495;28;20040;-38
2021/11/03 03:40:56;;;;;;;0.77;0.73;;;19.00;69.10;;;;;;5104310;28;20047;-38
2021/11/03 03:43:22;;;;;;;0.90;0.70;;;19.00;69.10;;;;;;5104246;28;20032;-38
2021/11/03 03:45:48;;;;;;;1.45;1.02;;;19.00;69.20;;;;;;5104408;28;20024;-38
2021/11/03 03:48:14;;;;;;;1.05;0.80;;;18.90;69.00;;;;;;5104531;28;20017;-38
2021/11/03 03:50:40;;;;;;;1.00;0.90;;;18.90;69.10;;;;;;5104425;28;20028;-38
2021/11/03 03:53:06;;;;;;;1.42;0.80;;;18.90;69.20;;;;;;5103735;28;20031;-38
2021/11/03 03:55:33;;;;;;;1.13;0.93;;;18.90;69.20;;;;;;5103727;28;20050;-37
2021/11/03 03:57:59;;;;;;;1.20;0.60;;;18.90;69.20;;;;;;5063957;28;20043;-38
2021/11/03 04:00:25;;;;;;;1.38;0.80;;;18.90;69.20;;;;;;5063929;28;20025;-38
2021/11/03 04:02:52;;;;;;;1.00;0.90;;;18.90;69.30;;;;;;5063984;28;20056;-38
2021/11/03 04:05:19;;;;;;;0.93;0.82;;;18.80;69.30;;;;;;5064762;28;20058;-38
2021/11/03 04:07:45;;;;;;;0.85;0.70;;;18.80;69.40;;;;;;5064265;28;20040;-38
2021/11/03 04:10:12;;;;;;;1.00;0.82;;;18.80;69.30;;;;;;5083643;28;20040;-37
2021/11/03 04:12:39;;;;;;;1.13;0.90;;;18.80;69.40;;;;;;5087011;28;20064;-38
2021/11/03 04:15:06;;;;;;;0.93;0.70;;;18.70;69.30;;;;;;5102072;28;20024;-38
2021/11/03 04:17:32;;;;;;;0.88;0.80;;;18.70;69.20;;;;;;5103973;28;20036;-37
2021/11/03 04:19:58;;;;;;;0.98;0.88;;;18.70;69.40;;;;;;5103480;28;20032;-38
2021/11/03 04:22:24;;;;;;;0.88;0.75;;;18.70;69.40;;;;;;5103768;28;20028;-37
2021/11/03 04:24:50;;;;;;;1.15;0.90;;;18.70;69.40;;;;;;5103680;28;20020;-38
2021/11/03 04:27:16;;;;;;;1.00;0.70;;;18.70;69.60;;;;;;5103615;28;20043;-38
2021/11/03 04:29:43;;;;;;;0.95;0.68;;;18.70;69.50;;;;;;5103705;28;20024;-38
2021/11/03 04:32:09;;;;;;;1.23;0.98;;;18.60;69.50;;;;;;5103663;28;20115;-38
2021/11/03 04:34:35;;;;;;;0.80;0.68;;;18.60;69.60;;;;;;5103247;28;20043;-38
2021/11/03 04:37:01;;;;;;;3.28;0.95;;;18.60;69.60;;;;;;5103239;28;20039;-38
2021/11/03 04:39:27;;;;;;;1.70;0.95;;;18.60;69.60;;;;;;5103741;28;20020;-38
2021/11/03 04:41:54;;;;;;;0.70;0.70;;;18.60;69.60;;;;;;5103334;28;20036;-37
2021/11/03 04:44:20;;;;;;;0.93;0.82;;;18.60;69.60;;;;;;5103190;28;20024;-38
2021/11/03 04:46:55;;;;;;;1.10;0.90;;;18.50;69.60;;;;;;5103465;28;20032;-38
2021/11/03 04:49:21;;;;;;;1.25;1.05;;;18.50;69.60;;;;;;5103333;28;20034;-38
2021/11/03 04:51:47;;;;;;;1.17;0.80;;;18.50;69.70;;;;;;5103200;28;20032;-37
2021/11/03 04:54:13;;;;;;;1.23;0.80;;;18.50;69.70;;;;;;5103084;28;20605;-38
2021/11/03 04:56:39;;;;;;;0.73;0.73;;;18.50;69.70;;;;;;5102746;28;20028;-38
2021/11/03 04:59:06;;;;;;;1.30;0.90;;;18.50;69.80;;;;;;5103202;28;20651;-37
2021/11/03 05:01:32;;;;;;;1.80;0.90;;;18.40;69.70;;;;;;5103148;28;20045;-38
2021/11/03 05:03:58;;;;;;;1.33;1.00;;;18.40;69.70;;;;;;5102964;28;20059;-37
2021/11/03 05:06:26;;;;;;;1.00;0.90;;;18.40;69.80;;;;;;5102933;28;20027;-37
2021/11/03 05:08:53;;;;;;;0.90;0.80;;;18.40;69.90;;;;;;5103085;28;20024;-37
2021/11/03 05:11:19;;;;;;;1.15;0.82;;;18.40;69.80;;;;;;5101612;28;20020;-37
2021/11/03 05:13:48;;;;;;;1.10;0.90;;;18.30;69.70;;;;;;5102850;28;20089;-37
2021/11/03 05:16:15;;;;;;;1.25;0.93;;;18.30;69.80;;;;;;5102606;28;20040;-38
2021/11/03 05:18:41;;;;;;;;;;;18.30;70.60;;;;;;5103387;28;20054;-37
2021/11/03 05:21:07;;;;;;;0.77;0.70;;;18.30;69.80;;;;;;5102830;28;19912;-38
2021/11/03 05:23:33;;;;;;;0.90;0.80;;;18.30;69.90;;;;;;5102866;28;20046;-37
2021/11/03 05:25:59;;;;;;;1.13;1.00;;;18.30;70.70;;;;;;5101903;28;20024;-38
2021/11/03 05:28:25;;;;;;;0.95;0.85;;;18.30;69.90;;;;;;5102500;28;20610;-38
2021/11/03 05:30:52;;;;;;;0.95;0.80;;;18.20;70.00;;;;;;5102775;28;20039;-38
2021/11/03 05:33:18;;;;;;;0.90;0.85;;;18.20;69.90;;;;;;5102844;28;20028;-38
2021/11/03 05:35:44;;;;;;;0.85;0.80;;;18.20;70.00;;;;;;5102549;28;20022;-38
2021/11/03 05:38:10;;;;;;;1.60;0.90;;;18.20;70.00;;;;;;5102412;28;20032;-38
2021/11/03 05:40:37;;;;;;;2.90;1.00;;;18.20;70.10;;;;;;5102595;28;20024;-38
2021/11/03 05:43:03;;;;;;;2.97;0.90;;;18.20;70.00;;;;;;5102625;28;20095;-37
2021/11/03 05:45:29;;;;;;;0.75;0.70;;;18.10;70.00;;;;;;5102488;28;20027;-38
2021/11/03 05:47:55;;;;;;;1.13;0.90;;;18.10;70.10;;;;;;5102621;28;20016;-38
2021/11/03 05:50:25;;;;;;;1.70;0.90;;;18.10;70.10;;;;;;5102539;28;20036;-38
2021/11/03 05:52:51;;;;;;;0.70;0.63;;;18.10;70.10;;;;;;5102483;28;20032;-38
2021/11/03 05:55:18;;;;;;;0.93;0.80;;;18.10;70.10;;;;;;5102270;28;20024;-38
2021/11/03 05:57:45;;;;;;;2.03;0.90;;;18.10;70.10;;;;;;5082877;28;20024;-38
2021/11/03 06:00:23;;;;;;;1.15;0.80;;;18.10;70.10;;;;;;5082703;28;20139;-37
2021/11/03 06:02:49;;;;;;;0.80;0.70;;;18.10;70.20;;;;;;5082266;28;20052;-38
2021/11/03 06:05:16;;;;;;;1.80;0.95;;;18.00;70.20;;;;;;5082771;28;20025;-37
2021/11/03 06:07:59;;;;;;;1.65;1.00;;;18.00;70.20;;;;;;5083925;28;20606;-38
2021/11/03 06:10:28;;;;;;;1.00;0.90;;;18.00;70.20;;;;;;5100612;28;20027;-37
2021/11/03 06:12:55;;;;;;;1.23;0.90;;;18.00;70.30;;;;;;5099129;28;20074;-37
2021/11/03 06:15:22;;;;;;;1.17;1.00;;;17.90;70.10;;;;;;5102016;28;20097;-38
2021/11/03 06:17:52;;;;;;;1.33;0.93;;;17.90;70.20;;;;;;5082028;28;20037;-38
2021/11/03 06:20:18;;;;;;;0.98;0.80;;;17.90;70.20;;;;;;5082103;28;20056;-38
2021/11/03 06:22:44;;;;;;;1.40;0.80;;;17.90;70.30;;;;;;5082001;28;20092;-38
2021/11/03 06:25:11;;;;;;;0.95;0.80;;;17.90;70.30;;;;;;5081855;28;20115;-38
2021/11/03 06:27:37;;;;;;;0.75;0.75;;;17.90;70.20;;;;;;5098991;28;20024;-38
2021/11/03 06:30:04;;;;;;;1.27;0.82;;;17.80;70.30;;;;;;5102431;28;20028;-38
2021/11/03 06:32:30;;;;;;;;;;;17.80;70.20;;;;;;5101354;28;20071;-38
2021/11/03 06:34:56;;;;;;;0.85;0.73;;;17.90;70.30;;;;;;5102278;28;19908;-38
2021/11/03 06:37:23;;;;;;;0.90;0.63;;;17.80;70.30;;;;;;5101961;28;20024;-38
2021/11/03 06:39:49;;;;;;;;;;;17.80;70.30;;;;;;5106251;28;20062;-38
2021/11/03 06:42:16;;;;;;;1.52;1.00;;;17.80;70.30;;;;;;5105450;28;19920;-37
2021/11/03 06:44:42;;;;;;;1.27;1.10;;;17.80;70.30;;;;;;5105715;28;20381;-38
2021/11/03 06:47:08;;;;;;;0.85;0.70;;;17.80;70.30;;;;;;5105370;28;20036;-38
2021/11/03 06:49:34;;;;;;;0.90;0.80;;;17.80;70.30;;;;;;5105838;28;20050;-38
2021/11/03 06:52:01;;;;;;;0.82;0.70;;;17.70;70.30;;;;;;5105554;28;20027;-38
2021/11/03 06:54:27;;;;;;;1.13;0.80;;;17.70;70.40;;;;;;5105654;28;20035;-37
2021/11/03 06:56:53;;;;;;;1.20;0.90;;;17.70;70.40;;;;;;5105198;28;20447;-38
2021/11/03 06:59:19;;;;;;;1.00;0.85;;;17.70;70.40;;;;;;5105561;28;20032;-38
2021/11/03 07:01:46;;;;;;;0.80;0.80;;;17.70;70.50;;;;;;5105680;28;20213;-38
2021/11/03 07:04:13;;;;;;;1.00;0.80;;;17.60;70.50;;;;;;5105193;28;20124;-37
2021/11/03 07:06:40;;;;;;;1.10;1.00;;;17.60;70.50;;;;;;5104821;28;20046;-37
2021/11/03 07:09:06;;;;;;;1.30;0.90;;;17.70;70.60;;;;;;5105518;28;20020;-37
2021/11/03 07:11:32;;;;;;;0.82;0.73;;;17.60;70.60;;;;;;5105120;28;20084;-38
2021/11/03 07:13:58;;;;;;;1.17;0.90;;;17.60;70.50;;;;;;5105089;28;20055;-38
2021/11/03 07:16:25;;;;;;;1.55;0.90;;;17.60;70.60;;;;;;5104908;28;20421;-37
2021/11/03 07:18:52;;;;;;;0.90;0.63;;;17.50;70.70;;;;;;5104988;28;20143;-37
2021/11/03 07:21:18;;;;;;;2.97;1.10;;;17.50;70.60;;;;;;5103774;28;20043;-38
2021/11/03 07:23:44;;;;;;;0.80;0.77;;;17.50;70.60;;;;;;5105059;28;20032;-38
2021/11/03 07:26:11;;;;;;;1.10;1.00;;;17.50;70.60;;;;;;5103206;28;20028;-37
2021/11/03 07:28:38;;;;;;;0.93;0.80;;;17.50;70.60;;;;;;5104930;28;20055;-37
2021/11/03 07:31:05;;;;;;;1.65;0.90;;;17.50;70.60;;;;;;5104956;28;20040;-37
2021/11/03 07:33:31;;;;;;;1.38;0.82;;;17.50;70.70;;;;;;5104942;28;20028;-37
2021/11/03 07:35:57;;;;;;;0.88;0.80;;;17.40;70.70;;;;;;5104621;28;20024;-37
2021/11/03 07:38:23;;;;;;;1.25;0.95;;;17.40;70.70;;;;;;5104278;28;20073;-37
2021/11/03 07:40:52;;;;;;;1.20;1.05;;;17.50;70.80;;;;;;5104519;28;20024;-38
2021/11/03 07:43:21;;;;;;;1.33;0.95;;;17.40;70.70;;;;;;5104549;28;20036;-38
2021/11/03 07:45:48;;;;;;;1.52;0.90;;;17.40;70.70;;;;;;5104707;28;20030;-37
2021/11/03 07:48:14;;;;;;;1.77;0.90;;;17.40;70.80;;;;;;5104429;28;20032;-37
2021/11/03 07:50:43;;;;;;;1.02;0.88;;;17.40;70.90;;;;;;5103602;28;20039;-37
2021/11/03 07:53:09;;;;;;;0.70;0.70;;;17.40;70.90;;;;;;5104431;28;20027;-38
2021/11/03 07:55:36;;;;;;;1.17;1.07;;;17.30;70.80;;;;;;5104183;28;20071;-38
2021/11/03 07:58:02;;;;;;;1.90;1.10;;;17.30;71.60;;;;;;5103002;28;20028;-38
2021/11/03 08:00:31;;;;;;;1.23;1.10;;;17.30;70.90;;;;;;5104128;28;20057;-37
2021/11/03 08:02:57;;;;;;;1.48;0.70;;;17.30;71.00;;;;;;5102922;28;20396;-38
2021/11/03 08:05:27;;;;;;;1.13;0.98;;;17.30;70.90;;;;;;5104313;28;20027;-38
2021/11/03 08:07:54;;;;;;;0.90;0.82;;;17.30;71.00;;;;;;5103863;28;20148;-38
2021/11/03 08:10:20;;;;;;;;;;;17.30;71.00;;;;;;5101893;28;20024;-38
2021/11/03 08:12:47;;;;;;;0.90;0.82;;;17.20;71.00;;;;;;5093568;28;19908;-38
2021/11/03 08:15:13;;;;;;;0.82;0.82;;;17.20;71.00;;;;;;5103893;28;20035;-38
2021/11/03 08:17:40;;;;;;;0.80;0.73;;;17.20;71.00;;;;;;5103959;28;20028;-37
2021/11/03 08:20:08;;;;;;;1.13;0.90;;;17.20;71.10;;;;;;5085607;28;20020;-38
2021/11/03 08:22:35;;;;;;;0.88;0.80;;;17.20;71.10;;;;;;5102142;28;20048;-38
2021/11/03 08:25:01;;;;;;;1.13;0.90;;;17.20;71.10;;;;;;5103878;28;20540;-38
2021/11/03 08:27:28;;;;;;;1.20;0.80;;;17.20;71.10;;;;;;5103669;28;20040;-38
2021/11/03 08:29:54;;;;;;;0.82;0.75;;;17.10;71.10;;;;;;5103611;28;20058;-38
2021/11/03 08:32:23;;;;;;;1.00;0.85;;;17.10;71.10;;;;;;5103648;28;20060;-38
2021/11/03 08:34:49;;;;;;;1.20;0.95;;;17.10;71.10;;;;;;5103534;28;20052;-38
2021/11/03 08:37:18;;;;;;;1.30;1.02;;;17.10;71.10;;;;;;5103371;28;20043;-38
2021/11/03 08:39:45;;;;;;;0.93;0.88;;;17.10;71.20;;;;;;5102085;28;20019;-38
2021/11/03 08:42:11;;;;;;;1.35;0.90;;;17.10;71.20;;;;;;5086096;28;20040;-38
2021/11/03 08:44:40;;;;;;;0.88;0.80;;;17.10;71.30;;;;;;5083239;28;20055;-37
2021/11/03 08:47:09;;;;;;;1.75;1.00;;;17.00;71.20;;;;;;5083057;28;20062;-38
2021/11/03 08:49:36;;;;;;;1.10;0.88;;;17.00;71.30;;;;;;5081685;28;20533;-38
2021/11/03 08:52:04;;;;;;;0.65;0.65;;;17.00;71.30;;;;;;5082733;28;20103;-38
2021/11/03 08:54:32;;;;;;;1.17;0.95;;;17.00;71.40;;;;;;5083051;28;20111;-40
2021/11/03 08:56:59;;;;;;;1.02;0.80;;;17.00;71.30;;;;;;5094597;28;20032;-38
2021/11/03 08:59:25;;;;;;;;;;;17.00;71.40;;;;;;5103701;28;20027;-38
2021/11/03 09:01:51;;;;;;;1.00;0.80;;;16.90;71.30;;;;;;5102854;28;19916;-38
2021/11/03 09:04:17;;;;;;;1.00;0.82;;;16.90;71.40;;;;;;5103130;28;20024;-38
2021/11/03 09:06:43;;;;;;;4.68;0.90;;;16.90;71.40;;;;;;5102725;28;20028;-38
2021/11/03 09:09:09;;;;;;;1.00;0.90;;;16.90;71.40;;;;;;5103248;28;20020;-38
2021/11/03 09:11:36;;;;;;;1.50;0.85;;;16.90;71.40;;;;;;5102305;28;20012;-38
2021/11/03 09:14:02;;;;;;;1.20;0.93;;;16.90;71.40;;;;;;5102829;28;20429;-38
2021/11/03 09:16:28;;;;;;;0.82;0.77;;;16.90;71.50;;;;;;5103094;28;20020;-38
2021/11/03 09:18:55;;;;;;;0.77;0.63;;;16.80;71.50;;;;;;5101602;28;20028;-38
2021/11/03 09:21:22;;;;;;;1.02;0.93;;;16.80;71.50;;;;;;5102725;28;20051;-38
2021/11/03 09:23:48;;;;;;;1.00;0.80;;;16.80;71.50;;;;;;5101414;28;20050;-38
2021/11/03 09:26:15;;;;;;;1.10;0.98;;;16.80;71.50;;;;;;5080994;28;20032;-38
2021/11/03 09:28:41;;;;;;;0.90;0.70;;;16.80;71.60;;;;;;5082651;28;20162;-38
2021/11/03 09:31:08;;;;;;;1.08;0.70;;;16.80;71.60;;;;;;5082347;28;20773;-38
2021/11/03 09:33:36;;;;;;;1.33;1.00;;;16.80;71.70;;;;;;5085577;28;20103;-38
2021/11/03 09:36:03;;;;;;;0.88;0.80;;;16.70;71.60;;;;;;5102399;28;20127;-37
2021/11/03 09:38:32;;;;;;;1.13;0.80;;;16.70;71.70;;;;;;5102662;28;20024;-38
2021/11/03 09:41:08;;;;;;;0.80;0.70;;;16.70;71.70;;;;;;5102247;28;20032;-39
2021/11/03 09:43:49;;;;;;;1.17;0.90;;;16.70;71.80;;;;;;5102440;28;20562;-38
2021/11/03 09:46:23;;;;;;;1.05;0.82;;;16.70;71.80;;;;;;5085179;28;20103;-38
2021/11/03 09:49:14;;;;;;;0.95;0.80;;;16.70;71.70;;;;;;5102740;28;20028;-38
2021/11/03 09:51:43;;;;;;;1.38;0.80;;;16.60;71.70;;;;;;5090495;28;20032;-37
2021/11/03 09:54:15;;;;;;;0.90;0.73;;;16.60;71.80;;;;;;5102447;28;20056;-38
2021/11/03 09:56:46;;;;;;;1.45;0.90;;;16.60;71.70;;;;;;5101032;28;20555;-38
2021/11/03 09:59:32;;;;;;;1.02;0.90;;;16.60;71.80;;;;;;5102429;28;20024;-38
2021/11/03 10:02:22;;;;;;;1.10;0.90;;;16.60;71.80;;;;;;5100841;28;20032;-38
2021/11/03 10:05:25;;;;;;;0.88;0.85;;;16.60;71.90;;;;;;5101023;28;20044;-38
2021/11/03 10:07:53;;;;;;;1.67;1.05;;;16.60;71.90;;;;;;5038891;28;20148;-38
2021/11/03 10:10:24;;;;;;;1.23;0.90;;;16.50;71.90;;;;;;5039379;28;20022;-38
2021/11/03 10:12:50;;;;;;;1.20;0.90;;;16.50;71.90;;;;;;5039570;28;20552;-38
2021/11/03 10:15:19;;;;;;;1.00;0.93;;;16.50;72.00;;;;;;5043408;28;20033;-38
2021/11/03 10:17:45;;;;;;;1.63;0.77;;;16.50;72.00;;;;;;5043250;28;20042;-38
2021/11/03 10:20:31;;;;;;;1.15;0.80;;;16.50;72.00;;;;;;5026648;28;20041;-38
2021/11/03 10:23:31;;;;;;;1.00;0.90;;;16.50;72.10;;;;;;5042782;28;20044;-38
2021/11/03 10:26:08;;;;;;;0.70;0.70;;;16.40;71.90;;;;;;5003469;28;20030;-38
2021/11/03 10:28:44;;;;;;;1.35;0.95;;;16.40;72.00;;;;;;5003524;28;20133;-38
2021/11/03 10:31:32;;;;;;;1.05;0.80;;;16.40;72.00;;;;;;4987378;28;20034;-38
2021/11/03 10:34:01;;;;;;;1.30;1.10;;;16.40;72.10;;;;;;5003511;28;20041;-38
2021/11/03 10:36:36;;;;;;;0.82;0.70;;;16.40;72.00;;;;;;5003298;28;20304;-38
2021/11/03 10:39:25;;;;;;;0.88;0.80;;;16.40;72.30;;;;;;5003138;28;20030;-38
2021/11/03 10:41:58;;;;;;;0.98;0.88;;;16.50;72.50;;;;;;5002488;28;20047;-42
2021/11/03 10:44:26;;;;;;;0.70;0.70;;;16.40;72.40;;;;;;5015205;28;20041;-38
2021/11/03 10:46:57;;;;;;;1.10;0.80;;;16.40;72.70;;;;;;5023052;28;20034;-39
2021/11/03 10:49:33;;;;;;;0.95;0.80;;;16.40;72.40;;;;;;5006566;28;20136;-38
2021/11/03 10:52:21;;;;;;;1.00;0.90;;;16.40;72.40;;;;;;5006583;28;20037;-38
2021/11/03 10:54:55;;;;;;;1.30;0.77;;;16.30;72.30;;;;;;5022719;28;20044;-38
2021/11/03 10:57:24;;;;;;;1.67;0.80;;;16.30;72.30;;;;;;5022230;28;20026;-38
2021/11/03 10:59:59;;;;;;;1.02;0.60;;;16.30;72.50;;;;;;5022665;28;20030;-38
2021/11/03 11:02:28;;;;;;;0.60;0.57;;;16.40;72.70;;;;;;5094216;28;20074;-38
2021/11/03 11:04:55;;;;;;;0.77;0.57;;;16.50;72.80;;;;;;5104075;28;20032;-38
2021/11/03 11:07:24;;;;;;;0.70;0.70;;;16.50;72.70;;;;;;5103453;28;20044;-37
2021/11/03 11:10:35;;;;;;;0.85;0.70;;;16.50;72.70;;;;;;5103696;28;20035;-38
2021/11/03 11:13:03;;;;;;;1.25;0.85;;;16.40;72.60;;;;;;5099568;28;20233;-39
2021/11/03 11:15:30;;;;;;;0.88;0.68;;;16.40;72.60;;;;;;5103917;28;20032;-38
2021/11/03 11:17:56;;;;;;;0.85;0.77;;;16.40;72.60;;;;;;5105073;28;20032;-38
2021/11/03 11:20:30;;;;;;;0.68;0.68;;;16.40;72.70;;;;;;5104931;28;20038;-38
2021/11/03 11:23:36;;;;;;;0.98;0.70;;;16.30;72.60;;;;;;5087034;28;20047;-38
2021/11/03 11:26:22;;;;;;;0.60;0.60;;;16.40;72.90;;;;;;5049038;28;20040;-38
2021/11/03 11:29:11;;;;;;;0.50;0.50;;;16.50;73.00;;;;;;5047616;28;20152;-38
2021/11/03 11:31:57;;;;;;;1.90;0.60;;;16.50;72.80;;;;;;5045225;28;20208;-38
2021/11/03 11:34:24;;;;;;;1.17;0.90;;;16.50;72.90;;;;;;5044946;28;20489;-38
2021/11/03 11:37:11;;;;;;;0.67;0.67;;;16.40;72.80;;;;;;5061688;28;20473;-38
2021/11/03 11:39:47;;;;;;;0.70;0.70;;;16.40;72.80;;;;;;5061560;28;20033;-38
2021/11/03 11:42:59;;;;;;;1.08;0.90;;;16.40;72.80;;;;;;5061395;28;20289;-37
2021/11/03 11:45:28;;;;;;;0.70;0.50;;;16.40;72.80;;;;;;5049243;28;20044;-37
2021/11/03 11:47:57;;;;;;;0.80;0.60;;;16.40;72.80;;;;;;5061377;28;20041;-38
2021/11/03 11:50:38;;;;;;;0.40;0.40;;;16.30;72.70;;;;;;5061176;28;20029;-37
2021/11/03 11:53:20;;;;;;;0.60;0.60;;;16.40;73.20;;;;;;5059781;28;20037;-37
2021/11/03 11:56:07;;;;;;;0.80;0.60;;;16.50;73.30;;;;;;5061170;28;20025;-37
2021/11/03 11:58:34;;;;;;;1.52;0.68;;;16.50;73.00;;;;;;5060883;28;20029;-37
2021/11/03 12:01:09;;;;;;;1.00;0.70;;;16.50;72.90;;;;;;5099473;28;20034;-37
2021/11/03 12:03:35;;;;;;;1.05;0.70;;;16.50;73.00;;;;;;5103972;28;20492;-38
2021/11/03 12:06:07;;;;;;;1.02;0.70;;;16.50;73.00;;;;;;5102145;28;20028;-37
2021/11/03 12:09:14;;;;;;;0.60;0.50;;;16.40;72.90;;;;;;5102609;28;20032;-37
2021/11/03 12:11:57;;;;;;;0.70;0.70;;;16.40;72.80;;;;;;5101808;28;20032;-37
2021/11/03 12:14:45;;;;;;;0.88;0.70;;;16.40;73.00;;;;;;5099855;28;20136;-38
2021/11/03 12:17:36;;;;;;;1.02;0.73;;;16.40;72.90;;;;;;5083660;28;20037;-37
2021/11/03 12:20:24;;;;;;;1.35;0.60;;;16.40;73.20;;;;;;5083592;28;20020;-37
2021/11/03 12:23:00;;;;;;;0.57;0.50;;;16.50;73.30;;;;;;5083304;28;20489;-37
2021/11/03 12:25:26;;;;;;;0.60;0.57;;;16.50;73.10;;;;;;5083614;28;20025;-38
2021/11/03 12:28:10;;;;;;;0.50;0.50;;;16.50;72.90;;;;;;5102487;28;20486;-38
2021/11/03 12:30:41;;;;;;;0.60;0.60;;;16.50;72.90;;;;;;5102602;28;20030;-38
2021/11/03 12:33:09;;;;;;;1.27;0.70;;;16.50;73.00;;;;;;5103628;28;20023;-38
2021/11/03 12:35:35;;;;;;;0.82;0.50;;;16.40;72.90;;;;;;5103314;28;20675;-37
2021/11/03 12:38:11;;;;;;;0.90;0.80;;;16.40;72.90;;;;;;5103238;28;20028;-37
2021/11/03 12:40:37;;;;;;;1.00;0.80;;;16.40;72.80;;;;;;5103710;28;20036;-37
2021/11/03 12:43:11;;;;;;;0.70;0.60;;;16.40;72.90;;;;;;5103271;28;20064;-37
2021/11/03 12:45:53;;;;;;;0.70;0.60;;;16.50;73.40;;;;;;5103291;28;20098;-37
2021/11/03 12:48:26;;;;;;;1.17;0.77;;;16.50;73.20;;;;;;5103499;28;20099;-37
2021/11/03 12:50:52;;;;;;;0.57;0.57;;;16.50;73.00;;;;;;5103426;28;20031;-37
2021/11/03 12:53:27;;;;;;;0.98;0.50;;;16.50;72.90;;;;;;5103282;28;20065;-37
2021/11/03 12:56:13;;;;;;;1.20;0.70;;;16.50;72.90;;;;;;5102836;28;20070;-37
2021/11/03 12:58:45;;;;;;;0.50;0.47;;;16.50;73.00;;;;;;5103110;28;20024;-38
2021/11/03 13:01:20;;;;;;;1.15;0.60;;;16.40;72.90;;;;;;5103194;28;20678;-38